sensor_id;sensor_type;location;lat;lon;timestamp;P1;durP1;ratioP1;P2;durP2;ratioP2
16928;SDS011;8581;47.334;11.190;2023-09-12T00:02:22;9.80;;;9.00;;
16928;SDS011;8581;47.334;11.190;2023-09-12T00:04:54;10.10;;;9.27;;
16928;SDS011;8581;47.334;11.190;2023-09-12T00:07:25;10.27;;;9.47;;
16928;SDS011;8581;47.334;11.190;2023-09-12T00:09:57;10.10;;;9.27;;
16928;SDS011;8581;47.334;11.190;2023-09-12T00:12:29;9.23;;;8.43;;
16928;SDS011;8581;47.334;11.190;2023-09-12T00:15:00;9.47;;;8.67;;
16928;SDS011;8581;47.334;11.190;2023-09-12T00:17:32;9.27;;;8.57;;
16928;SDS011;8581;47.334;11.190;2023-09-12T00:20:04;9.97;;;8.97;;
16928;SDS011;8581;47.334;11.190;2023-09-12T00:22:36;9.33;;;8.63;;
16928;SDS011;8581;47.334;11.190;2023-09-12T00:25:08;10.40;;;9.60;;
16928;SDS011;8581;47.334;11.190;2023-09-12T00:27:39;10.30;;;9.50;;
16928;SDS011;8581;47.334;11.190;2023-09-12T00:30:11;10.27;;;9.50;;
16928;SDS011;8581;47.334;11.190;2023-09-12T00:32:43;11.17;;;10.33;;
16928;SDS011;8581;47.334;11.190;2023-09-12T00:35:15;12.10;;;11.17;;
16928;SDS011;8581;47.334;11.190;2023-09-12T00:37:46;12.03;;;11.13;;
16928;SDS011;8581;47.334;11.190;2023-09-12T00:40:18;11.90;;;10.83;;
16928;SDS011;8581;47.334;11.190;2023-09-12T00:42:51;10.77;;;9.97;;
16928;SDS011;8581;47.334;11.190;2023-09-12T00:45:24;11.67;;;10.77;;
16928;SDS011;8581;47.334;11.190;2023-09-12T00:47:56;11.27;;;10.40;;
16928;SDS011;8581;47.334;11.190;2023-09-12T00:50:27;11.03;;;10.23;;
16928;SDS011;8581;47.334;11.190;2023-09-12T00:52:59;11.50;;;10.37;;
16928;SDS011;8581;47.334;11.190;2023-09-12T00:55:31;11.53;;;10.53;;
16928;SDS011;8581;47.334;11.190;2023-09-12T00:58:02;11.27;;;10.27;;
16928;SDS011;8581;47.334;11.190;2023-09-12T01:00:34;11.07;;;10.17;;
16928;SDS011;8581;47.334;11.190;2023-09-12T01:03:06;11.30;;;10.40;;
16928;SDS011;8581;47.334;11.190;2023-09-12T01:05:37;12.13;;;11.13;;
16928;SDS011;8581;47.334;11.190;2023-09-12T01:08:09;12.50;;;11.33;;
16928;SDS011;8581;47.334;11.190;2023-09-12T01:10:40;11.97;;;11.07;;
16928;SDS011;8581;47.334;11.190;2023-09-12T01:13:13;12.67;;;11.40;;
16928;SDS011;8581;47.334;11.190;2023-09-12T01:15:44;12.20;;;11.00;;
16928;SDS011;8581;47.334;11.190;2023-09-12T01:18:16;11.97;;;10.87;;
16928;SDS011;8581;47.334;11.190;2023-09-12T01:23:46;11.17;;;10.27;;
16928;SDS011;8581;47.334;11.190;2023-09-12T01:28:59;11.50;;;10.37;;
16928;SDS011;8581;47.334;11.190;2023-09-12T01:31:30;11.50;;;10.60;;
16928;SDS011;8581;47.334;11.190;2023-09-12T01:36:41;11.00;;;10.07;;
16928;SDS011;8581;47.334;11.190;2023-09-12T01:39:12;11.17;;;10.27;;
16928;SDS011;8581;47.334;11.190;2023-09-12T01:41:44;10.90;;;10.00;;
16928;SDS011;8581;47.334;11.190;2023-09-12T01:44:15;11.03;;;10.13;;
16928;SDS011;8581;47.334;11.190;2023-09-12T01:46:47;11.30;;;10.50;;
16928;SDS011;8581;47.334;11.190;2023-09-12T01:49:19;11.23;;;10.43;;
16928;SDS011;8581;47.334;11.190;2023-09-12T01:51:50;11.27;;;10.17;;
16928;SDS011;8581;47.334;11.190;2023-09-12T01:54:22;11.23;;;10.30;;
16928;SDS011;8581;47.334;11.190;2023-09-12T01:56:54;11.27;;;10.37;;
16928;SDS011;8581;47.334;11.190;2023-09-12T01:59:25;12.83;;;11.73;;
16928;SDS011;8581;47.334;11.190;2023-09-12T02:01:57;11.73;;;10.83;;
16928;SDS011;8581;47.334;11.190;2023-09-12T02:04:28;11.47;;;10.57;;
16928;SDS011;8581;47.334;11.190;2023-09-12T02:07:00;11.93;;;11.00;;
16928;SDS011;8581;47.334;11.190;2023-09-12T02:09:31;12.57;;;11.47;;
16928;SDS011;8581;47.334;11.190;2023-09-12T02:12:03;12.30;;;11.20;;
16928;SDS011;8581;47.334;11.190;2023-09-12T02:14:35;11.53;;;10.60;;
16928;SDS011;8581;47.334;11.190;2023-09-12T02:17:07;12.40;;;11.40;;
16928;SDS011;8581;47.334;11.190;2023-09-12T02:19:39;11.57;;;10.57;;
16928;SDS011;8581;47.334;11.190;2023-09-12T02:22:10;12.20;;;11.00;;
16928;SDS011;8581;47.334;11.190;2023-09-12T02:24:42;12.33;;;11.13;;
16928;SDS011;8581;47.334;11.190;2023-09-12T02:27:13;12.43;;;11.53;;
16928;SDS011;8581;47.334;11.190;2023-09-12T02:29:45;12.53;;;11.53;;
16928;SDS011;8581;47.334;11.190;2023-09-12T02:32:16;13.13;;;12.13;;
16928;SDS011;8581;47.334;11.190;2023-09-12T02:34:48;12.80;;;11.73;;
16928;SDS011;8581;47.334;11.190;2023-09-12T02:37:20;12.93;;;11.87;;
16928;SDS011;8581;47.334;11.190;2023-09-12T02:39:51;12.03;;;11.00;;
16928;SDS011;8581;47.334;11.190;2023-09-12T02:42:23;10.93;;;10.03;;
16928;SDS011;8581;47.334;11.190;2023-09-12T02:44:54;11.33;;;10.50;;
16928;SDS011;8581;47.334;11.190;2023-09-12T02:47:26;11.93;;;10.83;;
16928;SDS011;8581;47.334;11.190;2023-09-12T02:49:58;11.20;;;10.40;;
16928;SDS011;8581;47.334;11.190;2023-09-12T02:52:29;11.53;;;10.63;;
16928;SDS011;8581;47.334;11.190;2023-09-12T02:55:01;12.13;;;10.93;;
16928;SDS011;8581;47.334;11.190;2023-09-12T02:57:32;12.53;;;11.33;;
16928;SDS011;8581;47.334;11.190;2023-09-12T03:00:04;12.27;;;11.23;;
16928;SDS011;8581;47.334;11.190;2023-09-12T03:02:37;12.33;;;11.20;;
16928;SDS011;8581;47.334;11.190;2023-09-12T03:05:08;12.53;;;11.47;;
16928;SDS011;8581;47.334;11.190;2023-09-12T03:07:40;12.23;;;11.27;;
16928;SDS011;8581;47.334;11.190;2023-09-12T03:10:12;12.40;;;11.40;;
16928;SDS011;8581;47.334;11.190;2023-09-12T03:12:43;11.93;;;10.93;;
16928;SDS011;8581;47.334;11.190;2023-09-12T03:15:15;11.97;;;10.97;;
16928;SDS011;8581;47.334;11.190;2023-09-12T03:17:46;11.17;;;10.27;;
16928;SDS011;8581;47.334;11.190;2023-09-12T03:20:18;12.27;;;11.27;;
16928;SDS011;8581;47.334;11.190;2023-09-12T03:22:50;11.53;;;10.53;;
16928;SDS011;8581;47.334;11.190;2023-09-12T03:25:21;12.03;;;11.03;;
16928;SDS011;8581;47.334;11.190;2023-09-12T03:27:53;12.10;;;11.00;;
16928;SDS011;8581;47.334;11.190;2023-09-12T03:30:24;11.47;;;10.50;;
16928;SDS011;8581;47.334;11.190;2023-09-12T03:32:56;11.37;;;10.47;;
16928;SDS011;8581;47.334;11.190;2023-09-12T03:35:28;12.63;;;11.57;;
16928;SDS011;8581;47.334;11.190;2023-09-12T03:37:59;12.30;;;11.27;;
16928;SDS011;8581;47.334;11.190;2023-09-12T03:40:31;12.53;;;11.53;;
16928;SDS011;8581;47.334;11.190;2023-09-12T03:43:03;12.67;;;11.53;;
16928;SDS011;8581;47.334;11.190;2023-09-12T03:45:34;11.83;;;10.93;;
16928;SDS011;8581;47.334;11.190;2023-09-12T03:48:06;11.87;;;10.97;;
16928;SDS011;8581;47.334;11.190;2023-09-12T03:50:37;11.23;;;10.33;;
16928;SDS011;8581;47.334;11.190;2023-09-12T03:53:09;12.03;;;11.03;;
16928;SDS011;8581;47.334;11.190;2023-09-12T03:55:41;12.20;;;11.20;;
16928;SDS011;8581;47.334;11.190;2023-09-12T03:58:12;12.93;;;11.83;;
16928;SDS011;8581;47.334;11.190;2023-09-12T04:00:44;11.87;;;10.80;;
16928;SDS011;8581;47.334;11.190;2023-09-12T04:03:15;12.13;;;11.00;;
16928;SDS011;8581;47.334;11.190;2023-09-12T04:05:47;11.43;;;10.57;;
16928;SDS011;8581;47.334;11.190;2023-09-12T04:08:19;11.67;;;10.67;;
16928;SDS011;8581;47.334;11.190;2023-09-12T04:10:50;11.83;;;10.87;;
16928;SDS011;8581;47.334;11.190;2023-09-12T04:13:22;11.83;;;10.80;;
16928;SDS011;8581;47.334;11.190;2023-09-12T04:15:53;12.43;;;11.23;;
16928;SDS011;8581;47.334;11.190;2023-09-12T04:18:25;12.30;;;11.33;;
16928;SDS011;8581;47.334;11.190;2023-09-12T04:20:57;13.20;;;12.07;;
16928;SDS011;8581;47.334;11.190;2023-09-12T04:23:28;13.60;;;12.40;;
16928;SDS011;8581;47.334;11.190;2023-09-12T04:26:00;12.90;;;11.87;;
16928;SDS011;8581;47.334;11.190;2023-09-12T04:28:31;12.40;;;11.40;;
16928;SDS011;8581;47.334;11.190;2023-09-12T04:31:03;12.90;;;11.90;;
16928;SDS011;8581;47.334;11.190;2023-09-12T04:33:34;12.80;;;11.70;;
16928;SDS011;8581;47.334;11.190;2023-09-12T04:36:06;12.47;;;11.43;;
16928;SDS011;8581;47.334;11.190;2023-09-12T04:38:38;12.03;;;11.03;;
16928;SDS011;8581;47.334;11.190;2023-09-12T04:41:11;13.40;;;12.20;;
16928;SDS011;8581;47.334;11.190;2023-09-12T04:43:41;12.83;;;11.83;;
16928;SDS011;8581;47.334;11.190;2023-09-12T04:46:12;12.13;;;11.17;;
16928;SDS011;8581;47.334;11.190;2023-09-12T04:48:44;15.40;;;13.90;;
16928;SDS011;8581;47.334;11.190;2023-09-12T04:51:16;12.80;;;11.80;;
16928;SDS011;8581;47.334;11.190;2023-09-12T04:53:47;12.93;;;11.83;;
16928;SDS011;8581;47.334;11.190;2023-09-12T04:56:19;13.03;;;11.97;;
16928;SDS011;8581;47.334;11.190;2023-09-12T04:58:51;13.73;;;12.63;;
16928;SDS011;8581;47.334;11.190;2023-09-12T05:01:22;12.70;;;11.70;;
16928;SDS011;8581;47.334;11.190;2023-09-12T05:03:54;13.60;;;12.50;;
16928;SDS011;8581;47.334;11.190;2023-09-12T05:06:25;13.83;;;12.63;;
16928;SDS011;8581;47.334;11.190;2023-09-12T05:08:57;12.97;;;11.97;;
16928;SDS011;8581;47.334;11.190;2023-09-12T05:11:29;13.70;;;12.50;;
16928;SDS011;8581;47.334;11.190;2023-09-12T05:14:00;13.03;;;11.77;;
16928;SDS011;8581;47.334;11.190;2023-09-12T05:16:32;13.33;;;12.23;;
16928;SDS011;8581;47.334;11.190;2023-09-12T05:19:03;14.03;;;12.63;;
16928;SDS011;8581;47.334;11.190;2023-09-12T05:21:35;11.87;;;10.87;;
16928;SDS011;8581;47.334;11.190;2023-09-12T05:24:07;12.03;;;10.93;;
16928;SDS011;8581;47.334;11.190;2023-09-12T05:26:38;11.80;;;10.73;;
16928;SDS011;8581;47.334;11.190;2023-09-12T05:29:10;11.23;;;10.33;;
16928;SDS011;8581;47.334;11.190;2023-09-12T05:31:42;11.70;;;10.50;;
16928;SDS011;8581;47.334;11.190;2023-09-12T05:34:13;12.07;;;11.13;;
16928;SDS011;8581;47.334;11.190;2023-09-12T05:36:45;11.50;;;10.50;;
16928;SDS011;8581;47.334;11.190;2023-09-12T05:39:16;12.03;;;10.53;;
16928;SDS011;8581;47.334;11.190;2023-09-12T05:41:48;12.07;;;10.87;;
16928;SDS011;8581;47.334;11.190;2023-09-12T05:44:20;12.23;;;11.03;;
16928;SDS011;8581;47.334;11.190;2023-09-12T05:46:51;12.80;;;11.70;;
16928;SDS011;8581;47.334;11.190;2023-09-12T05:49:23;12.17;;;11.07;;
16928;SDS011;8581;47.334;11.190;2023-09-12T05:51:54;11.80;;;10.70;;
16928;SDS011;8581;47.334;11.190;2023-09-12T05:54:26;11.70;;;10.70;;
16928;SDS011;8581;47.334;11.190;2023-09-12T05:56:58;11.60;;;10.53;;
16928;SDS011;8581;47.334;11.190;2023-09-12T05:59:29;11.40;;;10.20;;
16928;SDS011;8581;47.334;11.190;2023-09-12T06:02:01;10.97;;;9.93;;
16928;SDS011;8581;47.334;11.190;2023-09-12T06:04:32;13.60;;;10.10;;
16928;SDS011;8581;47.334;11.190;2023-09-12T06:07:04;10.37;;;9.50;;
16928;SDS011;8581;47.334;11.190;2023-09-12T06:09:36;11.10;;;10.10;;
16928;SDS011;8581;47.334;11.190;2023-09-12T06:12:07;10.43;;;9.43;;
16928;SDS011;8581;47.334;11.190;2023-09-12T06:14:39;10.47;;;9.57;;
16928;SDS011;8581;47.334;11.190;2023-09-12T06:17:11;10.30;;;9.50;;
16928;SDS011;8581;47.334;11.190;2023-09-12T06:19:42;10.70;;;9.90;;
16928;SDS011;8581;47.334;11.190;2023-09-12T06:22:14;10.53;;;9.57;;
16928;SDS011;8581;47.334;11.190;2023-09-12T06:24:45;10.30;;;9.27;;
16928;SDS011;8581;47.334;11.190;2023-09-12T06:27:17;10.40;;;9.60;;
16928;SDS011;8581;47.334;11.190;2023-09-12T06:29:49;9.83;;;9.13;;
16928;SDS011;8581;47.334;11.190;2023-09-12T06:32:21;9.83;;;8.90;;
16928;SDS011;8581;47.334;11.190;2023-09-12T06:34:53;10.27;;;9.30;;
16928;SDS011;8581;47.334;11.190;2023-09-12T06:37:24;11.60;;;9.60;;
16928;SDS011;8581;47.334;11.190;2023-09-12T06:39:56;11.43;;;10.33;;
16928;SDS011;8581;47.334;11.190;2023-09-12T06:42:28;13.27;;;9.83;;
16928;SDS011;8581;47.334;11.190;2023-09-12T06:44:59;10.57;;;9.27;;
16928;SDS011;8581;47.334;11.190;2023-09-12T06:47:31;9.60;;;8.70;;
16928;SDS011;8581;47.334;11.190;2023-09-12T06:50:02;10.63;;;8.97;;
16928;SDS011;8581;47.334;11.190;2023-09-12T06:52:34;9.83;;;8.27;;
16928;SDS011;8581;47.334;11.190;2023-09-12T06:55:06;8.50;;;7.70;;
16928;SDS011;8581;47.334;11.190;2023-09-12T06:57:38;8.13;;;7.17;;
16928;SDS011;8581;47.334;11.190;2023-09-12T07:00:10;9.93;;;6.70;;
16928;SDS011;8581;47.334;11.190;2023-09-12T07:02:42;9.98;;;6.85;;
16928;SDS011;8581;47.334;11.190;2023-09-12T07:05:14;9.20;;;6.67;;
16928;SDS011;8581;47.334;11.190;2023-09-12T07:07:46;7.30;;;5.93;;
16928;SDS011;8581;47.334;11.190;2023-09-12T07:10:17;7.00;;;6.30;;
16928;SDS011;8581;47.334;11.190;2023-09-12T07:12:49;10.10;;;6.20;;
16928;SDS011;8581;47.334;11.190;2023-09-12T07:15:21;8.38;;;6.20;;
16928;SDS011;8581;47.334;11.190;2023-09-12T07:17:52;7.08;;;6.20;;
16928;SDS011;8581;47.334;11.190;2023-09-12T07:20:24;7.50;;;6.80;;
16928;SDS011;8581;47.334;11.190;2023-09-12T07:22:55;7.40;;;6.08;;
16928;SDS011;8581;47.334;11.190;2023-09-12T07:25:27;6.37;;;5.72;;
16928;SDS011;8581;47.334;11.190;2023-09-12T07:27:58;6.67;;;6.08;;
16928;SDS011;8581;47.334;11.190;2023-09-12T07:30:34;7.65;;;6.70;;
16928;SDS011;8581;47.334;11.190;2023-09-12T07:33:15;10.93;;;5.87;;
16928;SDS011;8581;47.334;11.190;2023-09-12T07:35:47;6.78;;;6.12;;
16928;SDS011;8581;47.334;11.190;2023-09-12T07:38:18;8.08;;;6.10;;
16928;SDS011;8581;47.334;11.190;2023-09-12T07:40:50;8.28;;;5.80;;
16928;SDS011;8581;47.334;11.190;2023-09-12T07:43:21;7.12;;;6.10;;
16928;SDS011;8581;47.334;11.190;2023-09-12T07:45:56;12.13;;;6.20;;
16928;SDS011;8581;47.334;11.190;2023-09-12T07:48:32;6.58;;;5.75;;
16928;SDS011;8581;47.334;11.190;2023-09-12T07:51:11;6.97;;;6.03;;
16928;SDS011;8581;47.334;11.190;2023-09-12T07:53:43;9.28;;;6.42;;
16928;SDS011;8581;47.334;11.190;2023-09-12T07:56:15;7.87;;;6.33;;
16928;SDS011;8581;47.334;11.190;2023-09-12T07:58:48;6.72;;;6.12;;
16928;SDS011;8581;47.334;11.190;2023-09-12T08:01:19;6.53;;;5.92;;
16928;SDS011;8581;47.334;11.190;2023-09-12T08:03:51;6.65;;;5.87;;
16928;SDS011;8581;47.334;11.190;2023-09-12T08:06:24;8.03;;;5.87;;
16928;SDS011;8581;47.334;11.190;2023-09-12T08:09:05;8.20;;;6.17;;
16928;SDS011;8581;47.334;11.190;2023-09-12T08:11:37;7.97;;;6.10;;
16928;SDS011;8581;47.334;11.190;2023-09-12T08:14:09;6.62;;;5.92;;
16928;SDS011;8581;47.334;11.190;2023-09-12T08:16:40;5.83;;;5.30;;
16928;SDS011;8581;47.334;11.190;2023-09-12T08:19:12;7.55;;;6.17;;
16928;SDS011;8581;47.334;11.190;2023-09-12T08:21:43;6.40;;;5.42;;
16928;SDS011;8581;47.334;11.190;2023-09-12T08:24:15;6.30;;;5.70;;
16928;SDS011;8581;47.334;11.190;2023-09-12T08:26:47;8.03;;;5.97;;
16928;SDS011;8581;47.334;11.190;2023-09-12T08:29:18;6.25;;;5.65;;
16928;SDS011;8581;47.334;11.190;2023-09-12T08:31:50;6.08;;;5.45;;
16928;SDS011;8581;47.334;11.190;2023-09-12T08:34:22;7.08;;;5.80;;
16928;SDS011;8581;47.334;11.190;2023-09-12T08:36:56;6.45;;;5.78;;
16928;SDS011;8581;47.334;11.190;2023-09-12T08:42:13;5.58;;;5.08;;
16928;SDS011;8581;47.334;11.190;2023-09-12T08:44:47;5.78;;;5.28;;
16928;SDS011;8581;47.334;11.190;2023-09-12T08:47:19;6.28;;;5.55;;
16928;SDS011;8581;47.334;11.190;2023-09-12T08:49:50;8.05;;;5.47;;
16928;SDS011;8581;47.334;11.190;2023-09-12T08:52:22;5.70;;;5.20;;
16928;SDS011;8581;47.334;11.190;2023-09-12T08:54:54;5.95;;;5.35;;
16928;SDS011;8581;47.334;11.190;2023-09-12T08:57:25;7.00;;;5.15;;
16928;SDS011;8581;47.334;11.190;2023-09-12T08:59:58;5.37;;;4.87;;
16928;SDS011;8581;47.334;11.190;2023-09-12T09:02:29;5.50;;;5.00;;
16928;SDS011;8581;47.334;11.190;2023-09-12T09:05:01;7.15;;;5.40;;
16928;SDS011;8581;47.334;11.190;2023-09-12T09:07:33;7.33;;;5.15;;
16928;SDS011;8581;47.334;11.190;2023-09-12T09:10:05;7.65;;;5.72;;
16928;SDS011;8581;47.334;11.190;2023-09-12T09:12:39;6.70;;;5.12;;
16928;SDS011;8581;47.334;11.190;2023-09-12T09:17:52;7.58;;;5.47;;
16928;SDS011;8581;47.334;11.190;2023-09-12T09:20:32;6.05;;;5.17;;
16928;SDS011;8581;47.334;11.190;2023-09-12T09:23:04;5.62;;;4.95;;
16928;SDS011;8581;47.334;11.190;2023-09-12T09:25:39;5.70;;;5.20;;
16928;SDS011;8581;47.334;11.190;2023-09-12T09:30:48;5.35;;;4.90;;
16928;SDS011;8581;47.334;11.190;2023-09-12T09:33:19;5.05;;;4.65;;
16928;SDS011;8581;47.334;11.190;2023-09-12T09:35:51;6.35;;;5.20;;
16928;SDS011;8581;47.334;11.190;2023-09-12T09:38:22;6.15;;;5.50;;
16928;SDS011;8581;47.334;11.190;2023-09-12T09:40:54;6.30;;;5.70;;
16928;SDS011;8581;47.334;11.190;2023-09-12T09:43:25;7.53;;;5.28;;
16928;SDS011;8581;47.334;11.190;2023-09-12T09:45:58;5.83;;;5.33;;
16928;SDS011;8581;47.334;11.190;2023-09-12T09:48:30;6.53;;;5.42;;
16928;SDS011;8581;47.334;11.190;2023-09-12T09:51:02;6.58;;;5.05;;
16928;SDS011;8581;47.334;11.190;2023-09-12T09:53:34;7.12;;;5.50;;
16928;SDS011;8581;47.334;11.190;2023-09-12T09:56:10;6.10;;;5.35;;
16928;SDS011;8581;47.334;11.190;2023-09-12T09:58:45;5.10;;;4.72;;
16928;SDS011;8581;47.334;11.190;2023-09-12T10:01:27;5.40;;;4.90;;
16928;SDS011;8581;47.334;11.190;2023-09-12T10:03:59;6.28;;;5.50;;
16928;SDS011;8581;47.334;11.190;2023-09-12T10:06:30;6.08;;;5.58;;
16928;SDS011;8581;47.334;11.190;2023-09-12T10:09:01;6.62;;;5.72;;
16928;SDS011;8581;47.334;11.190;2023-09-12T10:11:33;6.25;;;5.58;;
16928;SDS011;8581;47.334;11.190;2023-09-12T10:14:05;11.18;;;6.40;;
16928;SDS011;8581;47.334;11.190;2023-09-12T10:16:40;6.58;;;5.97;;
16928;SDS011;8581;47.334;11.190;2023-09-12T10:19:15;6.58;;;5.90;;
16928;SDS011;8581;47.334;11.190;2023-09-12T10:22:05;10.58;;;6.45;;
16928;SDS011;8581;47.334;11.190;2023-09-12T10:24:34;6.08;;;5.47;;
16928;SDS011;8581;47.334;11.190;2023-09-12T10:27:06;6.12;;;5.55;;
16928;SDS011;8581;47.334;11.190;2023-09-12T10:29:38;7.03;;;5.80;;
16928;SDS011;8581;47.334;11.190;2023-09-12T10:32:09;5.83;;;5.20;;
16928;SDS011;8581;47.334;11.190;2023-09-12T10:34:41;6.45;;;5.05;;
16928;SDS011;8581;47.334;11.190;2023-09-12T10:37:17;6.00;;;5.50;;
16928;SDS011;8581;47.334;11.190;2023-09-12T10:39:53;6.65;;;4.45;;
16928;SDS011;8581;47.334;11.190;2023-09-12T10:42:25;5.25;;;4.80;;
16928;SDS011;8581;47.334;11.190;2023-09-12T10:44:57;5.83;;;5.33;;
16928;SDS011;8581;47.334;11.190;2023-09-12T10:47:29;8.95;;;5.72;;
16928;SDS011;8581;47.334;11.190;2023-09-12T10:50:01;6.00;;;5.30;;
16928;SDS011;8581;47.334;11.190;2023-09-12T10:52:32;6.60;;;5.35;;
16928;SDS011;8581;47.334;11.190;2023-09-12T10:55:04;8.80;;;5.90;;
16928;SDS011;8581;47.334;11.190;2023-09-12T10:57:36;5.62;;;5.12;;
16928;SDS011;8581;47.334;11.190;2023-09-12T11:00:09;6.00;;;5.42;;
16928;SDS011;8581;47.334;11.190;2023-09-12T11:02:41;5.70;;;5.05;;
16928;SDS011;8581;47.334;11.190;2023-09-12T11:08:08;6.90;;;5.80;;
16928;SDS011;8581;47.334;11.190;2023-09-12T11:10:40;5.80;;;5.30;;
16928;SDS011;8581;47.334;11.190;2023-09-12T11:13:16;7.25;;;5.47;;
16928;SDS011;8581;47.334;11.190;2023-09-12T11:18:34;6.35;;;5.75;;
16928;SDS011;8581;47.334;11.190;2023-09-12T11:21:05;6.15;;;5.55;;
16928;SDS011;8581;47.334;11.190;2023-09-12T11:23:37;5.83;;;5.22;;
16928;SDS011;8581;47.334;11.190;2023-09-12T11:26:08;6.15;;;5.15;;
16928;SDS011;8581;47.334;11.190;2023-09-12T11:28:40;5.97;;;5.37;;
16928;SDS011;8581;47.334;11.190;2023-09-12T11:31:12;5.55;;;4.80;;
16928;SDS011;8581;47.334;11.190;2023-09-12T11:33:45;5.85;;;5.35;;
16928;SDS011;8581;47.334;11.190;2023-09-12T11:36:18;6.35;;;4.50;;
16928;SDS011;8581;47.334;11.190;2023-09-12T11:38:50;7.50;;;5.08;;
16928;SDS011;8581;47.334;11.190;2023-09-12T11:44:05;5.15;;;4.47;;
16928;SDS011;8581;47.334;11.190;2023-09-12T11:46:36;4.95;;;4.15;;
16928;SDS011;8581;47.334;11.190;2023-09-12T11:49:08;5.90;;;4.58;;
16928;SDS011;8581;47.334;11.190;2023-09-12T11:51:53;6.70;;;4.50;;
16928;SDS011;8581;47.334;11.190;2023-09-12T11:54:25;4.72;;;4.22;;
16928;SDS011;8581;47.334;11.190;2023-09-12T11:56:56;4.90;;;4.40;;
16928;SDS011;8581;47.334;11.190;2023-09-12T11:59:28;5.72;;;4.53;;
16928;SDS011;8581;47.334;11.190;2023-09-12T12:02:00;4.50;;;4.10;;
16928;SDS011;8581;47.334;11.190;2023-09-12T12:04:32;6.55;;;4.08;;
16928;SDS011;8581;47.334;11.190;2023-09-12T12:07:03;6.10;;;4.10;;
16928;SDS011;8581;47.334;11.190;2023-09-12T12:09:35;4.67;;;3.90;;
16928;SDS011;8581;47.334;11.190;2023-09-12T12:12:09;5.55;;;3.80;;
16928;SDS011;8581;47.334;11.190;2023-09-12T12:14:40;5.97;;;4.33;;
16928;SDS011;8581;47.334;11.190;2023-09-12T12:17:11;4.87;;;4.10;;
16928;SDS011;8581;47.334;11.190;2023-09-12T12:19:45;4.97;;;4.35;;
16928;SDS011;8581;47.334;11.190;2023-09-12T12:22:15;4.83;;;4.22;;
16928;SDS011;8581;47.334;11.190;2023-09-12T12:24:46;4.90;;;3.80;;
16928;SDS011;8581;47.334;11.190;2023-09-12T12:27:18;4.40;;;3.98;;
16928;SDS011;8581;47.334;11.190;2023-09-12T12:29:49;4.22;;;3.75;;
16928;SDS011;8581;47.334;11.190;2023-09-12T12:32:23;5.62;;;4.10;;
16928;SDS011;8581;47.334;11.190;2023-09-12T12:34:54;4.70;;;3.72;;
16928;SDS011;8581;47.334;11.190;2023-09-12T12:37:29;4.10;;;3.75;;
16928;SDS011;8581;47.334;11.190;2023-09-12T12:40:00;4.47;;;4.05;;
16928;SDS011;8581;47.334;11.190;2023-09-12T12:42:33;3.95;;;3.60;;
16928;SDS011;8581;47.334;11.190;2023-09-12T12:45:11;4.17;;;3.50;;
16928;SDS011;8581;47.334;11.190;2023-09-12T12:47:45;6.17;;;3.62;;
16928;SDS011;8581;47.334;11.190;2023-09-12T12:50:17;5.37;;;3.95;;
16928;SDS011;8581;47.334;11.190;2023-09-12T12:52:48;4.20;;;3.75;;
16928;SDS011;8581;47.334;11.190;2023-09-12T12:55:20;4.72;;;3.55;;
16928;SDS011;8581;47.334;11.190;2023-09-12T12:57:51;4.45;;;3.80;;
16928;SDS011;8581;47.334;11.190;2023-09-12T13:00:23;4.12;;;3.62;;
16928;SDS011;8581;47.334;11.190;2023-09-12T13:02:54;4.70;;;3.72;;
16928;SDS011;8581;47.334;11.190;2023-09-12T13:05:27;5.05;;;4.10;;
16928;SDS011;8581;47.334;11.190;2023-09-12T13:07:58;4.17;;;3.75;;
16928;SDS011;8581;47.334;11.190;2023-09-12T13:10:29;5.28;;;3.83;;
16928;SDS011;8581;47.334;11.190;2023-09-12T13:13:01;4.00;;;3.60;;
16928;SDS011;8581;47.334;11.190;2023-09-12T13:15:34;4.50;;;3.87;;
16928;SDS011;8581;47.334;11.190;2023-09-12T13:18:06;4.60;;;3.60;;
16928;SDS011;8581;47.334;11.190;2023-09-12T13:20:38;3.87;;;3.55;;
16928;SDS011;8581;47.334;11.190;2023-09-12T13:23:09;4.33;;;3.22;;
16928;SDS011;8581;47.334;11.190;2023-09-12T13:25:41;5.40;;;3.40;;
16928;SDS011;8581;47.334;11.190;2023-09-12T13:28:12;4.65;;;3.20;;
16928;SDS011;8581;47.334;11.190;2023-09-12T13:30:44;5.00;;;3.75;;
16928;SDS011;8581;47.334;11.190;2023-09-12T13:33:16;3.05;;;2.70;;
16928;SDS011;8581;47.334;11.190;2023-09-12T13:35:48;4.17;;;3.00;;
16928;SDS011;8581;47.334;11.190;2023-09-12T13:38:20;4.10;;;2.87;;
16928;SDS011;8581;47.334;11.190;2023-09-12T13:40:51;4.03;;;2.98;;
16928;SDS011;8581;47.334;11.190;2023-09-12T13:43:23;6.05;;;4.12;;
16928;SDS011;8581;47.334;11.190;2023-09-12T13:45:54;5.95;;;4.10;;
16928;SDS011;8581;47.334;11.190;2023-09-12T13:48:28;8.48;;;4.55;;
16928;SDS011;8581;47.334;11.190;2023-09-12T13:51:00;7.15;;;4.15;;
16928;SDS011;8581;47.334;11.190;2023-09-12T13:53:31;6.15;;;4.10;;
16928;SDS011;8581;47.334;11.190;2023-09-12T13:58:40;7.90;;;3.77;;
16928;SDS011;8581;47.334;11.190;2023-09-12T14:01:12;4.47;;;4.08;;
16928;SDS011;8581;47.334;11.190;2023-09-12T14:03:43;6.45;;;4.03;;
16928;SDS011;8581;47.334;11.190;2023-09-12T14:06:15;4.20;;;3.35;;
16928;SDS011;8581;47.334;11.190;2023-09-12T14:08:46;4.75;;;3.92;;
16928;SDS011;8581;47.334;11.190;2023-09-12T14:11:18;6.67;;;4.30;;
16928;SDS011;8581;47.334;11.190;2023-09-12T14:13:50;6.70;;;4.78;;
16928;SDS011;8581;47.334;11.190;2023-09-12T14:16:21;6.55;;;4.60;;
16928;SDS011;8581;47.334;11.190;2023-09-12T14:18:53;5.80;;;4.10;;
16928;SDS011;8581;47.334;11.190;2023-09-12T14:21:24;5.75;;;4.10;;
16928;SDS011;8581;47.334;11.190;2023-09-12T14:23:57;19.10;;;4.97;;
16928;SDS011;8581;47.334;11.190;2023-09-12T14:26:28;4.75;;;4.33;;
16928;SDS011;8581;47.334;11.190;2023-09-12T14:28:59;4.97;;;3.95;;
16928;SDS011;8581;47.334;11.190;2023-09-12T14:31:32;15.03;;;4.50;;
16928;SDS011;8581;47.334;11.190;2023-09-12T14:34:04;5.62;;;4.15;;
16928;SDS011;8581;47.334;11.190;2023-09-12T14:36:35;7.00;;;3.72;;
16928;SDS011;8581;47.334;11.190;2023-09-12T14:39:06;4.22;;;3.20;;
16928;SDS011;8581;47.334;11.190;2023-09-12T14:41:38;5.03;;;3.15;;
16928;SDS011;8581;47.334;11.190;2023-09-12T14:44:10;6.22;;;3.27;;
16928;SDS011;8581;47.334;11.190;2023-09-12T14:46:41;6.12;;;3.12;;
16928;SDS011;8581;47.334;11.190;2023-09-12T14:49:13;4.87;;;3.40;;
16928;SDS011;8581;47.334;11.190;2023-09-12T14:51:44;5.70;;;3.30;;
16928;SDS011;8581;47.334;11.190;2023-09-12T14:54:16;5.03;;;3.10;;
16928;SDS011;8581;47.334;11.190;2023-09-12T14:56:49;4.22;;;3.08;;
16928;SDS011;8581;47.334;11.190;2023-09-12T14:59:20;3.37;;;2.90;;
16928;SDS011;8581;47.334;11.190;2023-09-12T15:01:52;3.22;;;2.85;;
16928;SDS011;8581;47.334;11.190;2023-09-12T15:04:24;7.20;;;3.10;;
16928;SDS011;8581;47.334;11.190;2023-09-12T15:06:57;3.80;;;3.27;;
16928;SDS011;8581;47.334;11.190;2023-09-12T15:09:28;3.92;;;3.22;;
16928;SDS011;8581;47.334;11.190;2023-09-12T15:12:00;3.50;;;3.20;;
16928;SDS011;8581;47.334;11.190;2023-09-12T15:14:31;3.47;;;3.10;;
16928;SDS011;8581;47.334;11.190;2023-09-12T15:17:03;5.00;;;3.52;;
16928;SDS011;8581;47.334;11.190;2023-09-12T15:19:35;4.15;;;3.77;;
16928;SDS011;8581;47.334;11.190;2023-09-12T15:22:07;4.75;;;4.30;;
16928;SDS011;8581;47.334;11.190;2023-09-12T15:24:40;82.08;;;8.85;;
16928;SDS011;8581;47.334;11.190;2023-09-12T15:27:11;3.87;;;3.58;;
16928;SDS011;8581;47.334;11.190;2023-09-12T15:29:47;4.75;;;3.70;;
16928;SDS011;8581;47.334;11.190;2023-09-12T15:32:19;5.95;;;3.70;;
16928;SDS011;8581;47.334;11.190;2023-09-12T15:34:51;4.83;;;4.10;;